Time;durP1;ratioP1;P1;durP2;ratioP2;P2;SDS_P1;SDS_P2;PMS_P1;PMS_P2;Temp;Humidity;BMP_temperature;BMP_pressure;BME280_temperature;BME280_humidity;BME280_pressure;Samples;Min_cycle;Max_cycle;Signal;HPM_P1;HPM_P2
2023/10/01 00:00:34;;;;;;;8.30;4.93;;;14.50;71.50;;;16.30;52.53;98588.84;5021122;28;20057;-48
2023/10/01 00:03:04;;;;;;;10.18;6.22;;;14.50;71.30;;;16.31;52.33;98590.50;5020489;28;20053;-51
2023/10/01 00:05:32;;;;;;;8.70;5.20;;;14.50;71.10;;;16.29;52.54;98586.31;5013694;28;20409;-45
2023/10/01 00:08:01;;;;;;;8.73;5.72;;;14.40;71.10;;;16.25;52.60;98575.06;5020810;28;20053;-51
2023/10/01 00:10:28;;;;;;;10.75;6.78;;;14.40;71.40;;;16.23;52.38;98578.97;4996446;28;20045;-49
2023/10/01 00:12:58;;;;;;;11.07;5.88;;;14.40;71.10;;;16.23;52.52;98573.59;5021566;28;20086;-49
2023/10/01 00:15:27;;;;;;;12.32;6.88;;;14.40;71.20;;;16.21;52.68;98571.06;5024226;28;20052;-48
2023/10/01 00:17:55;;;;;;;9.85;5.60;;;14.40;71.30;;;16.19;52.64;98575.78;5007071;28;20045;-49
2023/10/01 00:20:25;;;;;;;9.18;5.25;;;14.40;71.50;;;16.17;52.71;98569.75;5012010;28;20058;-47
2023/10/01 00:23:00;;;;;;;11.45;6.07;;;14.40;71.50;;;16.14;52.77;98573.59;5021249;28;20049;-49
2023/10/01 00:25:34;;;;;;;9.85;5.45;;;14.40;71.50;;;16.14;53.02;98572.78;5021121;28;20042;-45
2023/10/01 00:28:08;;;;;;;13.98;6.07;;;14.40;71.80;;;16.11;53.03;98579.34;5021118;28;20508;-47
2023/10/01 00:30:36;;;;;;;10.98;5.88;;;14.40;72.00;;;16.11;52.94;98592.78;5003436;28;20045;-45
2023/10/01 00:33:06;;;;;;;11.23;5.65;;;14.30;72.20;;;16.08;53.24;98582.34;4986666;28;20053;-48
2023/10/01 00:35:39;;;;;;;10.85;5.57;;;14.20;72.50;;;16.06;53.43;98579.00;5013126;28;20045;-49
2023/10/01 00:38:10;;;;;;;9.95;5.50;;;14.30;72.80;;;16.09;53.34;98580.50;5021229;28;20073;-46
2023/10/01 00:40:45;;;;;;;10.95;5.43;;;14.30;72.70;;;16.09;53.48;98577.81;5014024;28;20045;-49
2023/10/01 00:43:12;;;;;;;10.05;5.25;;;14.30;73.00;;;16.07;53.41;98579.84;5022888;28;20038;-48
2023/10/01 00:45:41;;;;;;;12.68;5.22;;;14.30;73.00;;;16.09;53.58;98584.06;5006898;28;20045;-45
2023/10/01 00:48:11;;;;;;;9.75;5.30;;;14.30;72.90;;;16.10;53.60;98576.81;5005707;28;20048;-46
2023/10/01 00:50:39;;;;;;;9.88;5.70;;;14.30;72.80;;;16.12;53.65;98574.78;4982439;28;20061;-45
2023/10/01 00:53:10;;;;;;;11.27;6.13;;;14.30;72.70;;;16.12;53.58;98578.31;4999965;28;20056;-50
2023/10/01 00:55:39;;;;;;;11.98;5.47;;;14.30;72.70;;;16.08;53.79;98570.78;5023541;28;20058;-49
2023/10/01 00:58:10;;;;;;;10.10;5.28;;;14.30;73.10;;;15.98;54.20;98567.47;4974378;28;20473;-47
2023/10/01 01:00:38;;;;;;;8.18;4.65;;;14.20;73.90;;;15.98;53.93;98579.03;4999588;28;20421;-49
2023/10/01 01:03:09;;;;;;;13.48;7.20;;;14.20;73.90;;;15.95;54.05;98579.38;4983775;28;20056;-48
2023/10/01 01:05:40;;;;;;;11.55;6.20;;;14.10;74.00;;;15.91;54.07;98580.72;4982272;28;20053;-48
2023/10/01 01:08:21;;;;;;;10.45;5.57;;;14.10;74.00;;;15.91;54.25;98578.06;5015872;28;20058;-48
2023/10/01 01:10:51;;;;;;;9.38;5.40;;;14.10;74.10;;;15.85;54.12;98568.00;4991443;28;20045;-50
2023/10/01 01:13:28;;;;;;;14.20;6.38;;;14.10;74.30;;;15.87;54.28;98574.88;5068231;28;20394;-50
2023/10/01 01:16:00;;;;;;;15.82;6.03;;;14.10;74.10;;;15.91;54.28;98572.69;5047754;28;20149;-45
2023/10/01 01:18:33;;;;;;;12.27;5.68;;;14.10;73.90;;;15.93;54.05;98571.50;5046541;28;20052;-48
2023/10/01 01:21:09;;;;;;;11.23;5.35;;;14.20;73.50;;;15.98;54.00;98560.25;5046871;28;20045;-47
2023/10/01 01:23:37;;;;;;;8.70;4.80;;;14.20;73.30;;;16.01;53.97;98565.25;5047099;28;20045;-47
2023/10/01 01:26:07;;;;;;;11.32;6.47;;;14.30;73.20;;;15.99;54.00;98567.28;5047520;28;20433;-49
2023/10/01 01:28:35;;;;;;;12.63;5.32;;;14.30;73.30;;;16.00;54.15;98565.44;5047949;28;20045;-47
2023/10/01 01:31:04;;;;;;;9.85;6.38;;;14.30;73.30;;;15.99;54.07;98567.28;5029335;28;20049;-58
2023/10/01 01:33:39;;;;;;;10.27;5.75;;;14.20;73.50;;;15.98;53.91;98564.78;5046583;28;20052;-58
2023/10/01 01:36:19;;;;;;;10.70;5.20;;;14.20;73.50;;;15.98;54.00;98567.47;5045881;28;20053;-58
2023/10/01 01:39:13;;;;;;;10.40;5.20;;;14.20;73.50;;;15.98;54.08;98564.78;5046783;28;20049;-58
2023/10/01 01:41:47;;;;;;;9.60;5.00;;;14.10;73.40;;;15.92;54.04;98559.09;5039312;28;20041;-58
2023/10/01 01:44:15;;;;;;;9.88;5.45;;;14.00;74.00;;;15.90;53.95;98555.75;5047519;28;20048;-58
2023/10/01 01:46:49;;;;;;;8.98;5.15;;;14.00;73.90;;;15.91;53.90;98553.88;5046495;28;20037;-58
2023/10/01 01:49:19;;;;;;;8.85;5.47;;;14.00;73.70;;;15.89;53.94;98550.53;5046055;28;20052;-58
2023/10/01 01:51:57;;;;;;;11.57;5.72;;;14.00;73.70;;;15.85;54.09;98557.28;5046170;28;20054;-58
2023/10/01 01:54:37;;;;;;;12.65;6.28;;;14.00;74.00;;;15.83;54.03;98556.59;5045716;28;20049;-57
2023/10/01 01:57:12;;;;;;;9.68;5.93;;;14.00;73.90;;;15.84;54.12;98553.75;5030015;28;20500;-58
2023/10/01 01:59:41;;;;;;;10.23;5.40;;;14.00;73.70;;;15.76;54.34;98545.72;5046887;28;20041;-57
2023/10/01 02:02:10;;;;;;;11.80;6.60;;;13.90;74.10;;;15.68;54.44;98543.00;5045804;28;20500;-58
2023/10/01 02:04:58;;;;;;;11.75;5.72;;;13.80;74.70;;;15.62;54.65;98546.38;5045895;28;20052;-57
2023/10/01 02:07:33;;;;;;;12.10;6.05;;;13.80;75.00;;;15.55;54.84;98544.41;5046165;28;20504;-57
2023/10/01 02:10:04;;;;;;;8.85;5.80;;;13.70;75.40;;;15.54;54.86;98542.72;5045944;28;20420;-58
2023/10/01 02:12:31;;;;;;;12.32;6.00;;;13.70;75.50;;;15.53;54.88;98545.59;5045495;28;20389;-57
2023/10/01 02:15:02;;;;;;;11.45;5.32;;;13.70;75.40;;;15.52;55.08;98546.56;5045732;28;20049;-58
2023/10/01 02:17:30;;;;;;;8.25;5.22;;;13.70;75.50;;;15.52;55.22;98544.72;5047271;28;20037;-58
2023/10/01 02:19:58;;;;;;;12.07;5.72;;;13.70;75.50;;;15.52;55.23;98542.03;5047145;28;20044;-58
2023/10/01 02:22:27;;;;;;;9.68;6.28;;;13.80;75.50;;;15.55;55.18;98541.72;5046784;28;20420;-57
2023/10/01 02:24:55;;;;;;;12.27;5.63;;;13.80;75.30;;;15.60;55.13;98543.88;5015778;28;20045;-58
2023/10/01 02:27:26;;;;;;;12.02;5.70;;;13.90;75.20;;;15.64;55.15;98541.69;5033387;28;20042;-58
2023/10/01 02:30:14;;;;;;;11.00;5.43;;;13.90;75.00;;;15.69;54.70;98540.16;5033530;28;20046;-58
2023/10/01 02:33:15;;;;;;;11.55;5.53;;;13.90;74.70;;;15.74;54.70;98543.22;5025594;28;20069;-58
2023/10/01 02:35:41;;;;;;;7.78;4.95;;;14.00;74.10;;;15.80;54.53;98533.63;5032933;28;20041;-58
2023/10/01 02:40:58;;;;;;;9.93;5.43;;;14.10;73.60;;;15.81;54.13;98535.28;5012274;28;20049;-58
2023/10/01 02:43:34;;;;;;;12.02;6.28;;;14.00;73.80;;;15.75;54.20;98526.06;5032013;28;20080;-58
2023/10/01 02:46:12;;;;;;;13.55;6.55;;;13.90;73.70;;;15.73;54.20;98525.41;5031672;28;20052;-58
2023/10/01 02:48:42;;;;;;;10.95;5.43;;;14.00;73.70;;;15.73;54.02;98529.97;5033024;28;20048;-58
2023/10/01 02:51:16;;;;;;;12.93;6.13;;;14.00;73.50;;;15.72;54.23;98522.88;5015622;28;20049;-58
2023/10/01 02:54:06;;;;;;;10.57;5.88;;;13.90;73.80;;;15.71;54.17;98526.56;5024185;28;20493;-58
2023/10/01 02:56:52;;;;;;;13.70;6.22;;;13.90;73.70;;;15.67;54.10;98518.03;5032934;28;20037;-58
2023/10/01 02:59:20;;;;;;;11.82;6.55;;;13.80;73.90;;;15.63;54.07;98526.59;5032941;28;20048;-58
2023/10/01 03:01:48;;;;;;;9.20;5.65;;;13.80;73.90;;;15.59;54.17;98531.47;5031844;28;20504;-58
2023/10/01 03:04:17;;;;;;;10.73;6.30;;;13.80;74.10;;;15.57;54.31;98528.13;5032979;28;20045;-58
2023/10/01 03:06:56;;;;;;;10.57;6.35;;;13.80;74.10;;;15.55;54.46;98538.19;5014900;28;20257;-58
2023/10/01 03:09:32;;;;;;;12.77;5.88;;;13.70;74.20;;;15.51;54.22;98532.34;5024986;28;20061;-58
2023/10/01 03:15:16;;;;;;;12.57;6.22;;;13.70;74.20;;;15.46;54.36;98523.13;5031664;28;20050;-58
2023/10/01 03:17:56;;;;;;;12.52;6.93;;;13.70;74.10;;;15.43;54.34;98523.44;5032787;28;20044;-58
2023/10/01 03:26:00;;;;;;;12.80;7.00;;;13.50;74.80;;;15.29;54.43;98524.97;5024188;28;20485;-58
2023/10/01 03:29:13;;;;;;;12.50;7.07;;;13.40;74.80;;;15.26;54.64;98520.81;5032481;28;20049;-57
2023/10/01 03:31:25;;;;;;;13.68;6.57;;;13.40;75.20;;;15.25;54.71;98524.47;5031416;28;20052;-58
2023/10/01 03:33:54;;;;;;;12.48;6.95;;;13.40;75.20;;;15.21;54.64;98523.16;5032409;28;20420;-58
2023/10/01 03:36:25;;;;;;;11.93;6.63;;;13.30;75.40;;;15.19;54.62;98527.00;5029292;28;20493;-58
2023/10/01 03:39:25;;;;;;;14.20;6.75;;;13.30;75.40;;;15.15;54.65;98524.66;5032459;28;20086;-58
2023/10/01 03:41:53;;;;;;;15.90;7.13;;;13.20;75.30;;;15.12;54.69;98521.47;5024203;28;20421;-58
2023/10/01 03:47:11;;;;;;;13.45;7.20;;;13.20;75.50;;;15.06;54.73;98522.16;5026633;28;20041;-58
2023/10/01 03:49:44;;;;;;;10.32;6.43;;;13.20;75.80;;;15.01;54.87;98517.31;5032133;28;20042;-56
2023/10/01 03:52:20;;;;;;;11.88;6.93;;;13.10;76.20;;;14.97;55.17;98521.34;5032103;28;20037;-57
2023/10/01 03:54:52;;;;;;;15.93;7.45;;;13.10;76.60;;;14.96;55.27;98523.16;5015504;28;20531;-57
2023/10/01 03:57:20;;;;;;;10.75;6.20;;;13.10;76.90;;;14.95;55.20;98524.16;5031785;28;20049;-58
2023/10/01 03:59:52;;;;;;;11.43;5.82;;;13.10;76.80;;;14.95;55.46;98529.53;5031938;28;20053;-58
2023/10/01 04:02:28;;;;;;;11.88;6.82;;;13.10;76.80;;;14.93;55.68;98518.13;5031982;28;20041;-58
2023/10/01 04:04:57;;;;;;;12.60;7.10;;;13.10;77.80;;;14.94;55.62;98514.44;5022686;28;20504;-59
2023/10/01 04:07:40;;;;;;;10.85;6.15;;;13.20;77.40;;;14.98;55.76;98508.75;5029988;28;20050;-59
2023/10/01 04:10:14;;;;;;;8.57;5.05;;;13.20;77.10;;;15.01;55.55;98513.78;5031965;28;20486;-59
2023/10/01 04:12:44;;;;;;;13.25;6.38;;;13.20;77.00;;;15.02;55.70;98515.44;5031470;28;20052;-58
2023/10/01 04:15:27;;;;;;;12.40;6.88;;;13.20;76.90;;;15.02;55.54;98510.09;5031698;28;20037;-58
2023/10/01 04:23:32;;;;;;;12.35;5.72;;;13.20;76.70;;;15.01;55.54;98509.25;5030535;28;20052;-59
2023/10/01 04:26:05;;;;;;;11.05;5.43;;;13.20;76.40;;;15.02;55.47;98515.44;5024215;28;20045;-58
2023/10/01 04:28:44;;;;;;;10.43;5.63;;;13.20;76.10;;;15.00;55.43;98506.75;5031630;28;20049;-59
2023/10/01 04:31:19;;;;;;;10.20;6.60;;;13.20;75.90;;;14.98;55.12;98496.19;5031288;28;20049;-58
2023/10/01 04:33:49;;;;;;;11.38;6.38;;;13.20;76.20;;;14.97;55.41;98491.84;5014350;28;20054;-58
2023/10/01 04:36:19;;;;;;;11.32;6.53;;;13.10;76.20;;;14.94;55.31;98487.63;5029523;28;20038;-59
2023/10/01 04:38:51;;;;;;;9.73;5.78;;;13.20;76.30;;;14.92;55.23;98483.44;5030061;28;20493;-58
2023/10/01 04:41:21;;;;;;;12.40;6.32;;;13.20;76.20;;;14.92;55.48;98478.09;5031168;28;20041;-58
2023/10/01 04:43:52;;;;;;;10.10;5.53;;;13.10;76.40;;;14.90;55.61;98480.94;5031104;28;20444;-58
2023/10/01 04:46:24;;;;;;;9.57;6.45;;;13.20;76.50;;;14.89;55.72;98475.75;5030575;28;20409;-58
2023/10/01 04:48:52;;;;;;;12.57;7.32;;;13.10;76.80;;;14.88;55.73;98482.94;5021718;28;20057;-58
2023/10/01 04:51:21;;;;;;;10.65;5.95;;;13.10;76.80;;;14.84;55.99;98478.94;5030092;28;20060;-58
2023/10/01 04:53:51;;;;;;;13.95;6.28;;;13.10;77.10;;;14.83;55.92;98485.31;5030885;28;20034;-58
2023/10/01 04:56:22;;;;;;;10.23;6.30;;;13.00;77.40;;;14.80;55.86;98488.31;5029261;28;20041;-59
2023/10/01 04:58:51;;;;;;;13.32;7.35;;;13.00;77.70;;;14.75;56.14;98490.66;5031340;28;20068;-59
2023/10/01 05:01:28;;;;;;;11.30;6.30;;;12.90;78.00;;;14.72;56.31;98504.41;5031020;28;20512;-59
2023/10/01 05:03:57;;;;;;;13.55;7.07;;;12.90;78.50;;;14.72;56.27;98504.41;5023029;28;20420;-57
2023/10/01 05:06:27;;;;;;;11.23;6.35;;;12.90;78.70;;;14.73;56.32;98509.59;5030520;28;20519;-58
2023/10/01 05:08:56;;;;;;;12.40;5.60;;;13.00;78.30;;;14.75;56.64;98515.63;5022132;28;20064;-58
2023/10/01 05:11:31;;;;;;;10.82;6.03;;;13.10;78.10;;;14.79;56.51;98526.00;5030779;28;20042;-58
2023/10/01 05:14:04;;;;;;;12.23;6.30;;;13.10;78.10;;;14.78;56.56;98522.50;5023110;28;20053;-59
2023/10/01 05:16:38;;;;;;;14.10;7.53;;;13.10;78.10;;;14.80;56.65;98525.84;5030198;28;20050;-59
2023/10/01 05:19:13;;;;;;;10.75;5.90;;;13.20;78.20;;;14.83;56.55;98533.56;5030808;28;20056;-58
2023/10/01 05:21:48;;;;;;;15.75;7.03;;;13.10;78.00;;;14.87;56.49;98528.69;5030709;28;20072;-59
2023/10/01 05:24:36;;;;;;;10.82;6.72;;;13.20;77.50;;;14.90;56.56;98534.56;5029561;28;20057;-59
2023/10/01 05:27:18;;;;;;;9.30;5.57;;;13.30;77.30;;;14.93;56.61;98536.09;5022355;28;20041;-59
2023/10/01 05:29:46;;;;;;;13.20;6.57;;;13.30;77.60;;;14.90;56.55;98529.19;5030477;28;20053;-59
2023/10/01 05:32:18;;;;;;;8.63;5.00;;;13.30;77.80;;;14.94;56.70;98535.06;5030659;28;20052;-59
2023/10/01 05:34:46;;;;;;;9.63;5.13;;;13.30;77.80;;;14.95;56.65;98529.53;5030406;28;20041;-58
2023/10/01 05:37:24;;;;;;;10.15;5.07;;;13.30;77.70;;;15.00;56.80;98537.06;5030640;28;20041;-59
2023/10/01 05:39:56;;;;;;;11.63;5.55;;;13.40;77.50;;;15.07;56.44;98540.75;5029611;28;20515;-59
2023/10/01 05:42:31;;;;;;;10.35;6.22;;;13.50;76.90;;;15.09;56.25;98551.31;5030607;28;20144;-59
2023/10/01 05:44:59;;;;;;;13.25;7.32;;;13.40;76.60;;;15.11;56.41;98552.00;5021446;28;20045;-59
2023/10/01 05:47:45;;;;;;;9.32;6.22;;;13.40;76.40;;;15.10;56.29;98553.84;5029182;28;20046;-59
2023/10/01 05:50:14;;;;;;;14.40;6.60;;;13.40;76.50;;;15.09;56.23;98562.06;5024482;28;20412;-58
2023/10/01 05:52:44;;;;;;;11.43;7.47;;;13.30;76.70;;;15.08;55.94;98555.84;5030398;28;20053;-59
2023/10/01 05:55:12;;;;;;;15.55;7.03;;;13.30;76.70;;;15.08;56.11;98555.00;5030508;28;20125;-59
2023/10/01 05:57:40;;;;;;;13.43;6.35;;;13.30;76.80;;;15.08;56.23;98555.84;5030106;28;20390;-59
2023/10/01 06:00:25;;;;;;;12.23;5.97;;;13.40;76.70;;;15.08;56.30;98558.53;5033962;28;20516;-58
2023/10/01 06:03:01;;;;;;;9.30;5.90;;;13.30;77.00;;;15.07;56.26;98556.84;5034131;28;20045;-58
2023/10/01 06:08:18;;;;;;;15.82;5.90;;;13.30;78.20;;;15.10;56.37;98567.25;5026266;28;20052;-58
2023/10/01 06:10:59;;;;;;;10.02;6.40;;;13.30;77.50;;;15.12;56.52;98575.09;5034179;28;20045;-59
2023/10/01 06:13:28;;;;;;;13.00;6.07;;;13.30;77.60;;;15.15;56.50;98575.63;5033616;28;20049;-59
2023/10/01 06:15:58;;;;;;;11.15;5.90;;;13.40;77.20;;;15.19;56.46;98573.44;5033457;28;20112;-59
2023/10/01 06:18:27;;;;;;;13.63;6.18;;;13.50;77.00;;;15.23;56.35;98574.78;5032788;28;20052;-59
2023/10/01 06:20:54;;;;;;;9.50;5.80;;;13.60;76.60;;;15.27;56.37;98575.28;5031925;28;20048;-59
2023/10/01 06:23:23;;;;;;;12.77;5.97;;;13.70;76.60;;;15.29;56.39;98571.41;5027056;28;20048;-59
2023/10/01 06:25:53;;;;;;;11.63;6.35;;;13.70;76.60;;;15.29;56.36;98573.28;5033121;28;20527;-59
2023/10/01 06:28:23;;;;;;;11.75;7.22;;;13.60;77.60;;;15.29;56.20;98571.41;5033977;28;20042;-59
2023/10/01 06:30:52;;;;;;;11.63;7.22;;;13.60;76.70;;;15.28;56.40;98572.44;5031122;28;20519;-57
2023/10/01 06:33:26;;;;;;;15.60;7.20;;;13.50;77.10;;;15.25;56.57;98572.75;5032642;28;20042;-59
2023/10/01 06:38:47;;;;;;;11.13;6.82;;;13.50;77.80;;;15.27;56.20;98568.06;5032195;28;20045;-59
2023/10/01 06:41:20;;;;;;;10.93;5.85;;;13.60;77.60;;;15.29;56.59;98571.41;5028097;28;20420;-59
2023/10/01 06:43:48;;;;;;;10.18;6.22;;;13.60;77.30;;;15.31;56.71;98571.25;5029159;28;20050;-59
2023/10/01 06:46:19;;;;;;;10.00;5.40;;;13.60;77.50;;;15.32;56.68;98567.56;5031847;28;20613;-59
2023/10/01 06:48:48;;;;;;;11.18;6.75;;;13.60;77.50;;;15.36;56.64;98571.59;5032218;28;20042;-59
2023/10/01 06:51:22;;;;;;;15.13;6.63;;;13.70;77.30;;;15.41;56.46;98576.44;5032266;28;20041;-58
2023/10/01 06:54:05;;;;;;;11.77;6.82;;;13.70;77.10;;;15.41;56.69;98588.03;5030697;28;20500;-59
2023/10/01 06:56:33;;;;;;;11.68;5.57;;;13.80;77.30;;;15.45;56.81;98588.50;5030557;28;20398;-59
2023/10/01 07:01:42;;;;;;;14.18;7.25;;;13.80;77.40;;;15.53;56.96;98585.84;5031043;28;20060;-58
2023/10/01 07:04:11;;;;;;;14.25;6.82;;;13.90;77.30;;;15.58;56.85;98588.00;5024559;28;20497;-59
2023/10/01 07:06:40;;;;;;;12.45;7.32;;;14.00;77.10;;;15.61;56.88;98587.69;5031959;28;20054;-59
2023/10/01 07:09:24;;;;;;;15.40;7.65;;;14.00;77.10;;;15.66;56.97;98587.97;5030052;28;20440;-59
2023/10/01 07:11:52;;;;;;;13.35;7.20;;;14.10;77.30;;;15.72;57.13;98592.66;5030910;28;20420;-59
2023/10/01 07:14:30;;;;;;;11.95;7.93;;;14.20;77.60;;;15.75;57.31;98593.19;5031942;28;20053;-59
2023/10/01 07:17:00;;;;;;;9.50;6.32;;;14.30;77.90;;;15.82;57.21;98592.50;5031207;28;20045;-59
2023/10/01 07:19:31;;;;;;;11.52;6.47;;;14.30;78.00;;;15.85;57.12;98598.38;5030838;28;20200;-59
2023/10/01 07:21:59;;;;;;;12.40;7.03;;;14.30;78.00;;;15.89;57.35;98598.88;5030339;28;20046;-59
2023/10/01 07:24:29;;;;;;;12.90;7.70;;;14.40;77.80;;;15.92;57.44;98606.59;5031578;28;20420;-59
2023/10/01 07:27:03;;;;;;;12.23;6.75;;;14.40;78.00;;;15.92;57.40;98603.91;5027237;28;20053;-59
2023/10/01 07:29:33;;;;;;;10.32;7.00;;;14.50;78.20;;;15.95;57.58;98616.97;5026434;28;20064;-59
2023/10/01 07:32:07;;;;;;;14.18;8.07;;;14.50;78.20;;;15.99;57.66;98621.00;5029817;28;20057;-59
2023/10/01 07:34:35;;;;;;;10.63;6.50;;;14.60;78.00;;;16.00;57.86;98621.84;5030155;28;20044;-59
2023/10/01 07:37:07;;;;;;;11.45;7.00;;;14.60;78.20;;;16.03;57.60;98621.50;5030922;28;20516;-59
2023/10/01 07:39:36;;;;;;;15.60;7.68;;;14.60;78.50;;;16.04;57.80;98628.56;5027356;28;20037;-59
2023/10/01 07:42:10;;;;;;;16.92;7.43;;;14.60;78.50;;;16.08;57.66;98624.50;5030688;28;20412;-59
2023/10/01 07:44:38;;;;;;;15.55;7.30;;;14.60;78.30;;;16.14;57.69;98631.88;5031334;28;20053;-59
2023/10/01 07:47:06;;;;;;;11.20;7.00;;;14.70;78.20;;;16.20;57.43;98627.66;5030822;28;20057;-58
2023/10/01 07:49:50;;;;;;;12.02;7.72;;;14.80;77.80;;;16.23;57.59;98628.16;5030565;28;20065;-59
2023/10/01 07:52:18;;;;;;;16.60;6.93;;;14.90;77.60;;;16.28;57.71;98635.69;5024545;28;20061;-59
2023/10/01 07:54:48;;;;;;;11.10;6.18;;;14.90;77.50;;;16.34;57.72;98630.47;5031292;28;20048;-59
2023/10/01 07:57:28;;;;;;;11.48;6.82;;;15.00;77.40;;;16.40;57.71;98631.63;5022072;28;20045;-59
2023/10/01 08:00:00;;;;;;;12.20;6.93;;;15.10;77.40;;;16.47;57.63;98629.88;5030953;28;20037;-59
2023/10/01 08:02:28;;;;;;;13.50;7.70;;;15.20;77.30;;;16.52;57.56;98624.84;5029726;28;20041;-59
2023/10/01 08:07:39;;;;;;;14.20;7.25;;;15.30;76.70;;;16.64;57.52;98632.50;5028430;28;20427;-59
2023/10/01 08:10:16;;;;;;;12.63;7.20;;;15.40;76.20;;;16.69;57.39;98630.13;5030382;28;20049;-59
2023/10/01 08:15:37;;;;;;;17.27;9.05;;;15.40;76.00;;;16.81;57.17;98644.84;5023015;28;20425;-59
2023/10/01 08:20:59;;;;;;;12.95;7.30;;;15.50;75.90;;;16.90;57.04;98635.75;5031113;28;20512;-59
2023/10/01 08:23:36;;;;;;;14.45;7.40;;;15.60;75.50;;;16.94;56.81;98638.91;5031225;28;20416;-59
2023/10/01 08:28:57;;;;;;;12.57;6.75;;;15.70;75.00;;;17.04;56.95;98633.31;5031502;28;20045;-59
2023/10/01 08:34:24;;;;;;;12.98;7.15;;;15.90;74.70;;;17.15;56.84;98632.06;5031001;28;20053;-59
2023/10/01 08:37:06;;;;;;;14.93;7.30;;;15.90;74.50;;;17.20;56.77;98640.44;5029971;28;20041;-59
2023/10/01 08:39:34;;;;;;;12.88;6.85;;;16.00;74.00;;;17.27;56.52;98633.31;5031247;28;20050;-59
2023/10/01 08:42:10;;;;;;;12.98;7.25;;;16.00;73.90;;;17.29;56.31;98634.81;5031341;28;20056;-59
2023/10/01 08:44:54;;;;;;;13.27;7.22;;;16.10;73.50;;;17.34;56.46;98638.81;5031300;28;20042;-59
2023/10/01 08:47:34;;;;;;;14.10;7.40;;;16.20;73.50;;;17.42;56.33;98638.75;5038473;28;20056;-59
2023/10/01 08:50:19;;;;;;;11.20;6.68;;;16.20;73.40;;;17.46;56.36;98640.06;5030906;28;20057;-59
2023/10/01 08:52:56;;;;;;;16.83;7.10;;;16.30;73.20;;;17.50;55.89;98641.38;5031037;28;20489;-59
2023/10/01 08:55:35;;;;;;;11.05;6.30;;;16.30;72.30;;;17.55;55.82;98641.66;5023739;28;20044;-59
2023/10/01 08:58:25;;;;;;;12.10;6.60;;;16.40;72.20;;;17.60;55.67;98641.97;5028973;28;20045;-59
2023/10/01 09:01:12;;;;;;;12.38;6.05;;;16.40;72.10;;;17.67;55.62;98639.38;5031026;28;20489;-59
2023/10/01 09:03:47;;;;;;;11.18;6.22;;;16.50;72.20;;;17.73;55.64;98629.72;5031023;28;20493;-59
2023/10/01 09:06:27;;;;;;;9.93;5.82;;;16.60;72.10;;;17.77;55.50;98629.16;5030240;28;20057;-59
2023/10/01 09:09:19;;;;;;;;;;;16.60;71.70;;;17.83;55.71;98635.69;5030304;28;20527;-59
2023/10/01 09:11:50;;;;;;;12.32;6.03;;;16.60;70.80;;;17.91;55.45;98632.94;5030910;28;20270;-59
2023/10/01 09:14:34;;;;;;;12.48;7.45;;;16.70;71.90;;;17.96;55.37;98635.91;5029280;28;20072;-59
2023/10/01 09:17:27;;;;;;;12.15;6.88;;;16.70;71.90;;;18.02;55.33;98640.56;5028885;28;20421;-59
2023/10/01 09:20:05;;;;;;;;;;;16.80;70.90;;;18.08;55.41;98637.13;5029427;28;20049;-59
2023/10/01 09:25:20;;;;;;;11.68;5.82;;;16.90;71.40;;;18.18;55.05;98633.31;5029825;28;20068;-59
2023/10/01 09:27:57;;;;;;;11.82;6.28;;;17.00;70.50;;;18.24;54.90;98638.81;5029202;28;20049;-59
2023/10/01 09:30:26;;;;;;;9.43;5.03;;;17.10;70.70;;;18.28;54.78;98639.25;5030606;28;20497;-59
2023/10/01 09:33:04;;;;;;;9.75;5.93;;;17.10;70.50;;;18.32;54.62;98637.03;5028881;28;20061;-59
2023/10/01 09:35:56;;;;;;;11.95;6.70;;;17.20;70.40;;;18.37;54.71;98634.63;5034653;28;20049;-59
2023/10/01 09:38:27;;;;;;;12.38;6.63;;;17.20;69.80;;;18.45;54.64;98631.81;5025829;28;20041;-59
2023/10/01 09:40:57;;;;;;;10.38;5.70;;;17.30;70.30;;;18.53;54.39;98633.59;5034615;28;20042;-59
2023/10/01 09:43:30;;;;;;;11.60;5.45;;;17.40;69.90;;;18.57;54.39;98630.34;5026877;28;20041;-59
2023/10/01 09:46:00;;;;;;;;;;;17.50;69.60;;;18.64;54.62;98622.31;5034979;28;20071;-59
2023/10/01 09:48:36;;;;;;;9.25;5.50;;;17.50;68.20;;;18.72;54.12;98616.81;5033208;28;19932;-59
2023/10/01 09:51:15;;;;;;;10.30;5.03;;;17.50;69.00;;;18.77;53.90;98613.56;5034473;28;20045;-59
2023/10/01 09:54:00;;;;;;;10.50;5.57;;;17.60;68.80;;;18.83;53.86;98613.66;5034373;28;20409;-59
2023/10/01 09:56:50;;;;;;;;;;;17.70;67.90;;;18.89;54.03;98606.66;5041172;28;20058;-59
2023/10/01 09:59:17;;;;;;;10.00;5.25;;;17.70;66.80;;;18.99;53.42;98611.75;5034107;28;19976;-59
2023/10/01 10:01:47;;;;;;;9.02;5.32;;;17.80;68.50;;;19.01;53.40;98607.81;5034369;28;20049;-59
2023/10/01 10:04:20;;;;;;;9.30;5.28;;;17.90;68.30;;;19.07;53.30;98609.72;5033655;28;20045;-59
2023/10/01 10:07:00;;;;;;;11.18;6.05;;;17.90;68.10;;;19.11;53.09;98598.56;5034035;28;20588;-59
2023/10/01 10:09:30;;;;;;;12.25;5.80;;;18.00;67.80;;;19.17;53.25;98597.78;5026516;28;20045;-59
2023/10/01 10:12:07;;;;;;;8.48;5.53;;;18.00;67.70;;;19.23;52.76;98602.41;5032634;28;20060;-59
2023/10/01 10:14:35;;;;;;;10.38;5.85;;;18.20;66.80;;;19.29;52.64;98590.88;5026301;28;20061;-59
2023/10/01 10:17:18;;;;;;;9.77;5.57;;;18.20;66.70;;;19.36;52.65;98596.31;5033832;28;20034;-59
2023/10/01 10:23:19;;;;;;;12.38;6.13;;;18.40;64.70;;;19.48;52.39;98592.03;5031614;28;20041;-59
2023/10/01 10:25:47;;;;;;;9.15;5.20;;;18.40;66.20;;;19.52;52.17;98587.91;5033244;28;20068;-59
2023/10/01 10:28:29;;;;;;;9.95;5.38;;;18.50;66.00;;;19.56;51.93;98580.25;5033734;28;20041;-59
2023/10/01 10:31:29;;;;;;;5.95;3.75;;;18.40;64.60;;;19.57;51.89;98584.66;5033769;28;20413;-59
2023/10/01 10:34:24;;;;;;;10.80;5.53;;;18.50;63.80;;;19.61;51.78;98578.66;5028686;28;20041;-59
2023/10/01 10:36:54;;;;;;;11.57;5.65;;;18.50;63.30;;;19.67;51.42;98574.31;5028790;28;20417;-59
2023/10/01 10:39:44;;;;;;;11.55;6.13;;;18.60;64.90;;;19.71;51.65;98566.66;5032080;28;20489;-59
2023/10/01 10:42:28;;;;;;;8.98;5.03;;;18.70;63.00;;;19.79;51.10;98577.34;5033485;28;20052;-59
2023/10/01 10:45:20;;;;;;;8.60;5.22;;;18.70;63.10;;;19.82;50.93;98575.09;5032967;28;20049;-59
2023/10/01 10:48:03;;;;;;;10.70;5.32;;;18.70;62.60;;;19.84;50.81;98573.00;5027628;28;20033;-59
2023/10/01 10:50:53;;;;;;;8.05;4.93;;;18.70;63.50;;;19.93;50.49;98576.41;5026508;28;20041;-59
2023/10/01 10:53:42;;;;;;;10.05;5.35;;;18.80;62.00;;;20.04;50.01;98572.28;5024148;28;20489;-59
2023/10/01 10:56:14;;;;;;;9.70;5.05;;;18.90;62.20;;;20.12;49.86;98571.31;5032295;28;20041;-59
2023/10/01 10:59:01;;;;;;;10.73;5.18;;;19.00;62.10;;;20.19;49.69;98577.59;5031895;28;20033;-59
2023/10/01 11:01:43;;;;;;;11.75;6.30;;;19.10;61.20;;;20.21;49.78;98579.03;5032090;28;20069;-59
2023/10/01 11:04:13;;;;;;;11.05;6.32;;;19.10;61.60;;;20.29;49.33;98571.81;5032958;28;20049;-59
2023/10/01 11:06:44;;;;;;;10.07;5.20;;;19.20;61.40;;;20.35;49.41;98568.28;5032960;28;20046;-59
2023/10/01 11:09:24;;;;;;;12.65;5.57;;;19.30;61.20;;;20.43;49.25;98570.81;5032919;28;20053;-59
2023/10/01 11:12:04;;;;;;;12.80;6.78;;;19.30;60.20;;;20.46;49.12;98571.25;5032746;28;20041;-60
2023/10/01 11:14:36;;;;;;;11.45;6.32;;;19.40;60.70;;;20.54;48.80;98561.31;5024873;28;20516;-59
2023/10/01 11:17:07;;;;;;;10.77;6.20;;;19.50;59.90;;;20.57;48.58;98566.28;5031300;28;20038;-59
2023/10/01 11:19:35;;;;;;;11.95;5.70;;;19.50;60.30;;;20.62;48.61;98567.38;5024978;28;20042;-60
2023/10/01 11:22:07;;;;;;;10.52;5.57;;;19.60;59.60;;;20.68;48.05;98560.31;5032788;28;20040;-60
2023/10/01 11:24:41;;;;;;;11.98;5.72;;;19.60;58.90;;;20.71;48.07;98559.94;5031550;28;20068;-59
2023/10/01 11:27:17;;;;;;;8.82;5.00;;;19.70;58.20;;;20.72;48.44;98558.03;5030782;28;20045;-59
2023/10/01 11:30:19;;;;;;;8.93;5.35;;;19.70;58.70;;;20.77;48.43;98553.69;5032716;28;20052;-59
2023/10/01 11:32:58;;;;;;;11.27;6.35;;;19.80;58.40;;;20.88;48.37;98554.13;5026563;28;20041;-59